Time;durP1;ratioP1;P1;durP2;ratioP2;P2;SDS_P1;SDS_P2;PMS_P1;PMS_P2;Temp;Humidity;BMP_temperature;BMP_pressure;BME280_temperature;BME280_humidity;BME280_pressure;Samples;Min_cycle;Max_cycle;Signal;HPM_P1;HPM_P2
2021/07/26 00:01:33;;;;;;;89.28;66.97;;;;;;;;;;4329789;33;20052;-85
2021/07/26 00:04:03;;;;;;;90.00;66.15;;;;;;;;;;4315227;33;20072;-86
2021/07/26 00:06:31;;;;;;;85.78;66.10;;;;;;;;;;4325325;33;20072;-85
2021/07/26 00:08:59;;;;;;;86.75;66.00;;;;;;;;;;4319719;33;20103;-85
2021/07/26 00:11:28;;;;;;;89.22;66.28;;;;;;;;;;4314095;33;20053;-85
2021/07/26 00:13:57;;;;;;;90.38;75.20;;;;;;;;;;4328512;33;20478;-85
2021/07/26 00:16:25;;;;;;;81.78;72.87;;;;;;;;;;4310123;33;20517;-85
2021/07/26 00:18:54;;;;;;;79.05;71.05;;;;;;;;;;4322501;33;20088;-85
2021/07/26 00:21:22;;;;;;;73.62;66.10;;;;;;;;;;4327094;33;20431;-85
2021/07/26 00:23:51;;;;;;;73.97;65.65;;;;;;;;;;4320049;33;20033;-85
2021/07/26 00:26:20;;;;;;;102.53;75.35;;;;;;;;;;4317765;33;20056;-85
2021/07/26 00:28:49;;;;;;;97.20;76.22;;;;;;;;;;4316171;33;20146;-84
2021/07/26 00:31:17;;;;;;;98.60;75.32;;;;;;;;;;4318503;33;20092;-85
2021/07/26 00:34:06;;;;;;;97.28;74.68;;;;;;;;;;4322440;33;20111;-85
2021/07/26 00:36:35;;;;;;;97.97;72.03;;;;;;;;;;4330461;33;20056;-85
2021/07/26 00:39:05;;;;;;;94.72;74.90;;;;;;;;;;4321455;33;20131;-85
2021/07/26 00:41:34;;;;;;;102.95;74.90;;;;;;;;;;4325317;33;20541;-85
2021/07/26 00:44:03;;;;;;;79.12;65.72;;;;;;;;;;4315185;33;20130;-84
2021/07/26 00:46:31;;;;;;;79.22;65.47;;;;;;;;;;4323703;33;20102;-85
2021/07/26 00:49:04;;;;;;;72.40;64.03;;;;;;;;;;4323651;33;20179;-85
2021/07/26 00:51:33;;;;;;;79.90;71.53;;;;;;;;;;4320615;33;20072;-85
2021/07/26 00:54:02;;;;;;;74.93;67.65;;;;;;;;;;4321098;33;20146;-84
2021/07/26 00:56:31;;;;;;;73.43;65.75;;;;;;;;;;4327559;33;20125;-85
2021/07/26 00:59:00;;;;;;;74.07;66.30;;;;;;;;;;4314242;33;20071;-85
2021/07/26 01:01:28;;;;;;;73.47;65.95;;;;;;;;;;4317696;33;20806;-85
2021/07/26 01:03:57;;;;;;;75.15;62.20;;;;;;;;;;4326243;33;20036;-85
2021/07/26 01:06:26;;;;;;;76.00;60.90;;;;;;;;;;4324074;33;20075;-85
2021/07/26 01:08:54;;;;;;;77.78;61.13;;;;;;;;;;4315948;33;20075;-85
2021/07/26 01:11:23;;;;;;;90.25;69.35;;;;;;;;;;4305551;33;20306;-86
2021/07/26 01:13:53;;;;;;;94.95;68.75;;;;;;;;;;4318100;33;20152;-85
2021/07/26 01:16:23;;;;;;;89.50;71.30;;;;;;;;;;4319878;33;20044;-84
2021/07/26 01:18:52;;;;;;;94.85;72.75;;;;;;;;;;4320115;33;20451;-85
2021/07/26 01:21:21;;;;;;;76.95;63.28;;;;;;;;;;4320214;33;20075;-85
2021/07/26 01:23:51;;;;;;;73.55;62.65;;;;;;;;;;4321216;33;20501;-86
2021/07/26 01:26:23;;;;;;;75.00;63.05;;;;;;;;;;4334792;33;20071;-84
2021/07/26 01:28:53;;;;;;;79.50;71.47;;;;;;;;;;4323092;33;20140;-86
2021/07/26 01:31:22;;;;;;;77.68;69.70;;;;;;;;;;4331962;33;20052;-85
2021/07/26 01:33:51;;;;;;;72.70;65.90;;;;;;;;;;4328767;33;20139;-85
2021/07/26 01:36:20;;;;;;;73.90;66.45;;;;;;;;;;4319960;33;20506;-85
2021/07/26 01:38:53;;;;;;;73.95;66.78;;;;;;;;;;4323867;33;20067;-85
2021/07/26 01:41:23;;;;;;;85.10;70.85;;;;;;;;;;4334108;33;20066;-85
2021/07/26 01:44:02;;;;;;;95.55;71.85;;;;;;;;;;4326919;33;20076;-85
2021/07/26 01:46:39;;;;;;;96.00;71.68;;;;;;;;;;4331195;33;20044;-85
2021/07/26 01:49:24;;;;;;;77.53;63.50;;;;;;;;;;4322425;33;20068;-84
2021/07/26 01:51:53;;;;;;;76.50;64.65;;;;;;;;;;4323194;33;20124;-85
2021/07/26 01:54:21;;;;;;;72.97;62.75;;;;;;;;;;4320870;33;20625;-85
2021/07/26 01:56:50;;;;;;;70.30;60.50;;;;;;;;;;4315277;33;20040;-85
2021/07/26 01:59:18;;;;;;;75.90;61.45;;;;;;;;;;4323442;33;20060;-85
2021/07/26 02:01:47;;;;;;;71.72;60.58;;;;;;;;;;4321825;33;20592;-85
2021/07/26 02:04:16;;;;;;;80.72;60.55;;;;;;;;;;4327529;33;20087;-85
2021/07/26 02:06:44;;;;;;;75.35;66.62;;;;;;;;;;4328408;33;20585;-85
2021/07/26 02:09:13;;;;;;;74.07;66.50;;;;;;;;;;4320120;33;20466;-85
2021/07/26 02:11:42;;;;;;;74.75;67.37;;;;;;;;;;4308659;33;20645;-85
2021/07/26 02:14:10;;;;;;;70.32;62.67;;;;;;;;;;4326855;33;20056;-85
2021/07/26 02:16:40;;;;;;;71.40;63.87;;;;;;;;;;4315877;33;20454;-85
2021/07/26 02:19:08;;;;;;;90.70;75.05;;;;;;;;;;4328095;33;20084;-85
2021/07/26 02:21:37;;;;;;;100.35;75.60;;;;;;;;;;4333829;33;20048;-85
2021/07/26 02:24:07;;;;;;;97.72;74.55;;;;;;;;;;4330643;33;20114;-85
2021/07/26 02:26:36;;;;;;;93.00;75.85;;;;;;;;;;4334466;33;20036;-85
2021/07/26 02:29:05;;;;;;;96.97;76.05;;;;;;;;;;4323023;33;20072;-85
2021/07/26 02:31:34;;;;;;;96.28;75.85;;;;;;;;;;4327083;33;20056;-85
2021/07/26 02:34:03;;;;;;;93.05;75.75;;;;;;;;;;4334003;33;20459;-85
2021/07/26 02:36:31;;;;;;;78.95;66.35;;;;;;;;;;4324814;33;20099;-86
2021/07/26 02:39:00;;;;;;;76.93;66.40;;;;;;;;;;4329712;33;20064;-85
2021/07/26 02:41:29;;;;;;;81.22;66.22;;;;;;;;;;4322487;33;20120;-85
2021/07/26 02:43:57;;;;;;;81.70;73.07;;;;;;;;;;4321135;33;20098;-85
2021/07/26 02:46:25;;;;;;;82.60;73.87;;;;;;;;;;4334530;33;20052;-85
2021/07/26 02:48:54;;;;;;;82.28;73.47;;;;;;;;;;4321475;33;20462;-85
2021/07/26 02:51:23;;;;;;;82.97;73.93;;;;;;;;;;4307050;33;20475;-85
2021/07/26 02:53:51;;;;;;;80.70;72.65;;;;;;;;;;4331031;33;20372;-85
2021/07/26 02:56:31;;;;;;;102.45;76.97;;;;;;;;;;4324235;33;20072;-85
2021/07/26 02:59:00;;;;;;;93.20;73.47;;;;;;;;;;4329521;33;20064;-85
2021/07/26 03:01:32;;;;;;;94.47;73.28;;;;;;;;;;4331732;33;20043;-85
2021/07/26 03:04:01;;;;;;;76.60;63.58;;;;;;;;;;4323433;33;20118;-85
2021/07/26 03:06:30;;;;;;;96.93;73.97;;;;;;;;;;4331400;33;20163;-85
2021/07/26 03:08:58;;;;;;;96.20;69.82;;;;;;;;;;4322455;33;20084;-85
2021/07/26 03:11:40;;;;;;;98.72;72.68;;;;;;;;;;4355325;27;20080;-96
2021/07/26 03:19:50;;;;;;;;;;;;;;;;;;;;;
2021/07/26 03:23:31;;;;;;;81.45;73.07;;;;;;;;;;4283585;33;20046;-96
2021/07/26 03:27:01;;;;;;;84.03;74.97;;;;;;;;;;4220091;34;20035;-96
2021/07/26 03:30:09;;;;;;;84.62;74.30;;;;;;;;;;4229800;33;20055;-96
2021/07/26 03:33:28;;;;;;;;;;;;;;;;;;;;;
2021/07/26 03:50:58;;;;;;;76.50;65.97;;;;;;;;;;4310291;33;20079;-96
2021/07/26 11:32:58;;;;;;;61.03;50.15;;;;;;;;;;4125308;34;20383;-84
2021/07/26 11:35:30;;;;;;;47.28;42.33;;;;;;;;;;4133985;34;20123;-84
2021/07/26 11:38:04;;;;;;;29.15;26.48;;;;;;;;;;4128460;34;20081;-84
2021/07/26 11:40:33;;;;;;;14.82;13.90;;;;;;;;;;4125725;34;20049;-84
2021/07/26 11:43:02;;;;;;;6.05;5.70;;;;;;;;;;4130952;34;20099;-84
2021/07/26 11:45:31;;;;;;;1.75;1.10;;;;;;;;;;4124030;34;20168;-84
2021/07/26 11:47:59;;;;;;;1.58;0.60;;;;;;;;;;4130574;34;20389;-83
2021/07/26 11:50:38;;;;;;;1.45;0.40;;;;;;;;;;4117006;34;20078;-86
2021/07/26 11:53:07;;;;;;;0.95;0.80;;;;;;;;;;4127138;34;20033;-87
2021/07/26 11:55:37;;;;;;;1.58;0.30;;;;;;;;;;4119770;34;20119;-87
2021/07/26 11:58:08;;;;;;;4.78;0.70;;;;;;;;;;4123404;34;20071;-86
2021/07/26 12:00:39;;;;;;;2.55;0.50;;;;;;;;;;4123677;34;20436;-85
2021/07/26 12:03:09;;;;;;;1.00;0.20;;;;;;;;;;4125156;34;20115;-85
2021/07/26 12:05:38;;;;;;;2.58;0.20;;;;;;;;;;4128206;34;20123;-86
2021/07/26 12:08:19;;;;;;;1.48;0.30;;;;;;;;;;4135044;34;20538;-85
2021/07/26 12:10:48;;;;;;;1.08;0.25;;;;;;;;;;4127404;34;20498;-86
2021/07/26 12:13:18;;;;;;;1.35;0.30;;;;;;;;;;4139081;34;20068;-85
2021/07/26 12:15:47;;;;;;;2.12;0.40;;;;;;;;;;4131564;34;20126;-85
2021/07/26 12:18:36;;;;;;;5.03;0.80;;;;;;;;;;4131975;34;20116;-84
2021/07/26 12:21:05;;;;;;;2.35;0.60;;;;;;;;;;4138663;34;20116;-85
2021/07/26 12:23:36;;;;;;;5.28;0.70;;;;;;;;;;4136634;34;20741;-85
2021/07/26 12:26:05;;;;;;;1.58;0.40;;;;;;;;;;4133166;34;20074;-85
2021/07/26 12:28:40;;;;;;;1.00;0.40;;;;;;;;;;4127787;34;20488;-84
2021/07/26 12:31:28;;;;;;;1.58;0.90;;;;;;;;;;4131504;34;20489;-84
2021/07/26 12:34:10;;;;;;;7.20;5.93;;;;;;;;;;4134676;34;20487;-85
2021/07/26 12:36:38;;;;;;;5.35;5.05;;;;;;;;;;4135135;34;20052;-84
2021/07/26 12:39:08;;;;;;;6.40;6.00;;;;;;;;;;4135039;34;20092;-84
2021/07/26 12:41:38;;;;;;;1.35;1.15;;;;;;;;;;4134348;34;20060;-84
2021/07/26 12:44:13;;;;;;;0.77;0.52;;;;;;;;;;4133117;34;20045;-84
2021/07/26 12:46:49;;;;;;;1.30;0.40;;;;;;;;;;4139352;34;20079;-84
2021/07/26 12:49:19;;;;;;;3.90;0.50;;;;;;;;;;4127708;34;20100;-85
2021/07/26 12:51:50;;;;;;;2.05;0.50;;;;;;;;;;4135375;34;20186;-85
2021/07/26 12:54:19;;;;;;;1.23;0.35;;;;;;;;;;4123650;34;20513;-84
2021/07/26 12:56:47;;;;;;;0.30;0.20;;;;;;;;;;4129791;34;20081;-85
2021/07/26 12:59:16;;;;;;;0.37;0.13;;;;;;;;;;4130285;34;20096;-84
2021/07/26 13:01:50;;;;;;;0.20;0.20;;;;;;;;;;4129626;34;20079;-85
2021/07/26 13:04:19;;;;;;;1.48;0.45;;;;;;;;;;4125731;34;20041;-85
2021/07/26 13:06:48;;;;;;;1.83;0.40;;;;;;;;;;4135014;34;20110;-85
2021/07/26 13:09:16;;;;;;;1.35;0.65;;;;;;;;;;4128770;34;22319;-85
2021/07/26 13:11:44;;;;;;;1.42;0.25;;;;;;;;;;4129547;34;20076;-85
2021/07/26 13:14:13;;;;;;;1.50;0.40;;;;;;;;;;4124852;34;20428;-84
2021/07/26 13:16:42;;;;;;;1.85;0.30;;;;;;;;;;4132826;34;20094;-85
2021/07/26 13:19:10;;;;;;;0.85;0.20;;;;;;;;;;4125490;34;20405;-85
2021/07/26 13:21:39;;;;;;;0.85;0.40;;;;;;;;;;4126819;34;20072;-85
2021/07/26 13:24:07;;;;;;;1.52;0.30;;;;;;;;;;4124871;34;20085;-85
2021/07/26 13:26:36;;;;;;;0.85;0.30;;;;;;;;;;4117848;34;20555;-86
2021/07/26 13:29:05;;;;;;;0.52;0.40;;;;;;;;;;4126621;34;20499;-85
2021/07/26 13:31:54;;;;;;;0.10;0.10;;;;;;;;;;4118815;34;20056;-85
2021/07/26 13:34:23;;;;;;;0.22;0.20;;;;;;;;;;4116257;34;20262;-85
2021/07/26 13:36:51;;;;;;;1.15;0.75;;;;;;;;;;4117603;34;20096;-85
2021/07/26 13:39:21;;;;;;;0.80;0.22;;;;;;;;;;4113429;34;20618;-85
2021/07/26 13:41:54;;;;;;;3.08;0.50;;;;;;;;;;4116265;34;20176;-85
2021/07/26 13:44:24;;;;;;;0.73;0.20;;;;;;;;;;4114998;34;20719;-85
2021/07/26 13:46:54;;;;;;;1.52;0.73;;;;;;;;;;4119058;34;20122;-85
2021/07/26 13:49:22;;;;;;;1.17;0.40;;;;;;;;;;4125355;34;20053;-85
2021/07/26 13:51:50;;;;;;;4.47;0.50;;;;;;;;;;4119102;34;20071;-86
2021/07/26 13:54:19;;;;;;;1.90;0.77;;;;;;;;;;4118030;34;20511;-85
2021/07/26 13:56:48;;;;;;;2.90;1.02;;;;;;;;;;4122723;34;20154;-85
2021/07/26 13:59:19;;;;;;;1.30;0.50;;;;;;;;;;4114334;34;20121;-86
2021/07/26 14:01:47;;;;;;;2.35;0.70;;;;;;;;;;4117763;34;20456;-85
2021/07/26 14:04:16;;;;;;;2.15;0.47;;;;;;;;;;4122757;34;20111;-85
2021/07/26 14:06:44;;;;;;;2.25;0.70;;;;;;;;;;4122017;34;20152;-86
2021/07/26 14:09:13;;;;;;;3.58;1.15;;;;;;;;;;4112029;34;20091;-86
2021/07/26 14:11:42;;;;;;;2.05;0.70;;;;;;;;;;4118496;34;20088;-86
2021/07/26 14:14:10;;;;;;;3.00;1.25;;;;;;;;;;4116543;34;21055;-85
2021/07/26 14:16:39;;;;;;;1.50;0.50;;;;;;;;;;4121249;34;21164;-85
2021/07/26 14:19:09;;;;;;;4.43;0.62;;;;;;;;;;4110231;34;20081;-85
2021/07/26 14:21:37;;;;;;;5.47;1.10;;;;;;;;;;4120109;34;21153;-85
2021/07/26 14:24:06;;;;;;;1.02;0.60;;;;;;;;;;4106933;34;20480;-85
2021/07/26 14:26:35;;;;;;;5.62;0.60;;;;;;;;;;4120745;34;20110;-85
2021/07/26 14:29:03;;;;;;;1.65;0.45;;;;;;;;;;4119249;34;20121;-86
2021/07/26 14:31:31;;;;;;;3.47;0.70;;;;;;;;;;4119776;34;20053;-86
2021/07/26 14:34:00;;;;;;;3.42;0.65;;;;;;;;;;4115333;34;20108;-86
2021/07/26 14:36:29;;;;;;;3.60;0.70;;;;;;;;;;4115325;34;20445;-85
2021/07/26 14:38:58;;;;;;;4.00;1.25;;;;;;;;;;4114725;34;20158;-85
2021/07/26 14:41:27;;;;;;;2.15;0.80;;;;;;;;;;4119342;34;20535;-85
2021/07/26 14:43:55;;;;;;;3.92;1.40;;;;;;;;;;4112439;34;20071;-86
2021/07/26 14:46:23;;;;;;;3.45;0.73;;;;;;;;;;4114010;34;20115;-85
2021/07/26 14:48:56;;;;;;;3.15;0.90;;;;;;;;;;4115919;34;20212;-85
2021/07/26 14:51:24;;;;;;;3.87;0.50;;;;;;;;;;4118750;34;20136;-85
2021/07/26 14:53:56;;;;;;;3.22;0.95;;;;;;;;;;4114285;34;20045;-85
2021/07/26 14:56:26;;;;;;;3.28;0.80;;;;;;;;;;4119509;34;20197;-85
2021/07/26 14:58:54;;;;;;;4.00;1.00;;;;;;;;;;4111333;34;20131;-85
2021/07/26 15:01:23;;;;;;;2.17;0.95;;;;;;;;;;4112880;34;20120;-85
2021/07/26 15:03:52;;;;;;;4.37;0.70;;;;;;;;;;4120382;34;20105;-84
2021/07/26 15:06:21;;;;;;;2.75;0.60;;;;;;;;;;4112808;34;20046;-85
2021/07/26 15:08:49;;;;;;;3.70;1.12;;;;;;;;;;4119007;34;20133;-86
2021/07/26 15:11:18;;;;;;;1.95;0.62;;;;;;;;;;4122612;34;20111;-85
2021/07/26 15:13:47;;;;;;;4.50;1.33;;;;;;;;;;4116267;34;20496;-85
2021/07/26 15:16:16;;;;;;;3.47;3.08;;;;;;;;;;4118657;34;20147;-86
2021/07/26 15:18:44;;;;;;;3.40;3.00;;;;;;;;;;4112386;34;20373;-86
2021/07/26 15:21:13;;;;;;;2.20;1.27;;;;;;;;;;4114578;34;20104;-86
2021/07/26 15:23:41;;;;;;;2.55;1.45;;;;;;;;;;4122685;34;20521;-86
2021/07/26 15:26:10;;;;;;;4.22;3.80;;;;;;;;;;4123771;34;20191;-85
2021/07/26 15:28:39;;;;;;;3.22;1.10;;;;;;;;;;4113068;34;20594;-86
2021/07/26 15:31:10;;;;;;;13.23;12.35;;;;;;;;;;4115626;34;20336;-86
2021/07/26 15:33:39;;;;;;;7.43;6.82;;;;;;;;;;4120016;34;20505;-85
2021/07/26 15:36:07;;;;;;;9.70;9.00;;;;;;;;;;4122149;34;20398;-85
2021/07/26 15:38:36;;;;;;;15.30;14.07;;;;;;;;;;4115918;34;20076;-85
2021/07/26 15:41:07;;;;;;;17.08;15.73;;;;;;;;;;4106683;34;20076;-85
2021/07/26 15:43:35;;;;;;;23.08;20.85;;;;;;;;;;4119031;34;20088;-85
2021/07/26 15:46:07;;;;;;;42.05;37.80;;;;;;;;;;4124742;34;20410;-85
2021/07/26 15:48:36;;;;;;;36.75;33.35;;;;;;;;;;4126774;34;20080;-86
2021/07/26 15:51:05;;;;;;;42.95;38.60;;;;;;;;;;4124659;34;20140;-85
2021/07/26 15:53:33;;;;;;;23.65;21.45;;;;;;;;;;4122761;34;20586;-85
2021/07/26 15:56:02;;;;;;;25.88;23.33;;;;;;;;;;4126761;34;20363;-84
2021/07/26 15:58:33;;;;;;;29.05;26.35;;;;;;;;;;4126226;34;20450;-85
2021/07/26 16:01:03;;;;;;;32.20;29.48;;;;;;;;;;4129618;34;20056;-85
2021/07/26 16:03:32;;;;;;;30.48;27.67;;;;;;;;;;4118564;34;20057;-85
2021/07/26 16:06:01;;;;;;;27.45;25.15;;;;;;;;;;4125101;34;21530;-85
2021/07/26 16:08:30;;;;;;;17.92;16.33;;;;;;;;;;4118241;34;20041;-86
2021/07/26 16:10:59;;;;;;;18.73;17.10;;;;;;;;;;4112730;34;20077;-85
2021/07/26 16:13:27;;;;;;;18.33;16.83;;;;;;;;;;4121615;34;20457;-85
2021/07/26 16:15:55;;;;;;;20.05;18.45;;;;;;;;;;4123619;34;20037;-85
2021/07/26 16:18:24;;;;;;;29.05;26.70;;;;;;;;;;4121180;34;20110;-85
2021/07/26 16:20:54;;;;;;;20.12;18.20;;;;;;;;;;4131295;34;20052;-85
2021/07/26 16:23:22;;;;;;;23.10;20.90;;;;;;;;;;4118356;34;21128;-85
2021/07/26 16:25:51;;;;;;;30.05;27.35;;;;;;;;;;4127329;34;20426;-85
2021/07/26 16:28:19;;;;;;;39.30;35.35;;;;;;;;;;4122602;34;20123;-85
2021/07/26 16:30:48;;;;;;;26.23;23.83;;;;;;;;;;4122751;34;20102;-86
2021/07/26 16:33:17;;;;;;;25.00;22.60;;;;;;;;;;4120833;34;20052;-85
2021/07/26 16:35:45;;;;;;;28.20;25.40;;;;;;;;;;4126033;34;20139;-85
2021/07/26 16:38:14;;;;;;;31.95;28.65;;;;;;;;;;4120027;34;20089;-85
2021/07/26 16:40:42;;;;;;;53.05;43.80;;;;;;;;;;4121533;34;20057;-84
2021/07/26 16:43:12;;;;;;;58.72;46.35;;;;;;;;;;4121968;34;20060;-85
2021/07/26 16:45:40;;;;;;;63.58;47.90;;;;;;;;;;4114397;34;20354;-85
2021/07/26 16:48:09;;;;;;;62.83;47.75;;;;;;;;;;4123519;34;20125;-85
2021/07/26 16:50:37;;;;;;;54.35;48.72;;;;;;;;;;4123533;34;20154;-85
2021/07/26 16:53:06;;;;;;;49.22;44.53;;;;;;;;;;4134861;34;20220;-84
2021/07/26 16:55:35;;;;;;;52.50;47.45;;;;;;;;;;4136864;34;20079;-85
2021/07/26 16:58:04;;;;;;;50.08;45.42;;;;;;;;;;4127842;34;20041;-85
2021/07/26 17:00:33;;;;;;;58.83;52.72;;;;;;;;;;4116292;34;20113;-85
2021/07/26 17:03:03;;;;;;;57.50;44.88;;;;;;;;;;4133866;34;20049;-86
2021/07/26 17:05:32;;;;;;;56.95;45.60;;;;;;;;;;4132585;34;20080;-86
2021/07/26 17:08:00;;;;;;;56.88;41.90;;;;;;;;;;4139376;34;20122;-85
2021/07/26 17:10:30;;;;;;;57.38;44.47;;;;;;;;;;4125421;34;20044;-85
2021/07/26 17:13:01;;;;;;;57.53;45.60;;;;;;;;;;4120853;34;20104;-85
2021/07/26 17:15:29;;;;;;;57.10;45.15;;;;;;;;;;4118176;34;20089;-85
2021/07/26 17:17:58;;;;;;;53.47;43.55;;;;;;;;;;4121525;34;20132;-85
2021/07/26 17:20:26;;;;;;;53.95;43.25;;;;;;;;;;4120076;34;20224;-85
2021/07/26 17:22:55;;;;;;;63.58;49.33;;;;;;;;;;4120263;34;20133;-86
2021/07/26 17:25:24;;;;;;;68.12;49.85;;;;;;;;;;4122908;34;20078;-85
2021/07/26 17:27:52;;;;;;;45.50;40.67;;;;;;;;;;4128099;34;20073;-85
2021/07/26 17:30:21;;;;;;;44.85;40.40;;;;;;;;;;4120054;34;20110;-85
2021/07/26 17:32:50;;;;;;;44.35;39.95;;;;;;;;;;4116562;34;20515;-85
2021/07/26 17:35:18;;;;;;;47.08;41.95;;;;;;;;;;4120448;34;20389;-86
2021/07/26 17:37:47;;;;;;;44.20;40.08;;;;;;;;;;4124131;34;20061;-86
2021/07/26 17:40:16;;;;;;;68.45;50.03;;;;;;;;;;4128813;34;20076;-86
2021/07/26 17:42:45;;;;;;;71.22;49.92;;;;;;;;;;4121227;34;20106;-86
2021/07/26 17:45:14;;;;;;;72.47;50.28;;;;;;;;;;4121099;34;20385;-86
2021/07/26 17:47:43;;;;;;;55.45;41.88;;;;;;;;;;4119424;34;20370;-86
2021/07/26 17:50:11;;;;;;;52.40;41.40;;;;;;;;;;4121085;34;20089;-87
2021/07/26 17:52:42;;;;;;;54.42;41.35;;;;;;;;;;4108874;34;20143;-86
2021/07/26 17:55:10;;;;;;;58.03;43.78;;;;;;;;;;4119381;34;20135;-86
2021/07/26 17:57:39;;;;;;;56.67;42.58;;;;;;;;;;4122325;34;20089;-86
2021/07/26 18:00:08;;;;;;;60.80;43.38;;;;;;;;;;4119268;34;20053;-85
2021/07/26 18:02:37;;;;;;;62.15;44.40;;;;;;;;;;4111524;34;20147;-86
2021/07/26 18:05:07;;;;;;;63.45;44.45;;;;;;;;;;4121669;34;20100;-86
2021/07/26 18:07:44;;;;;;;53.42;47.83;;;;;;;;;;4120927;34;20607;-86
2021/07/26 18:10:14;;;;;;;52.78;46.95;;;;;;;;;;4120999;34;20564;-85
2021/07/26 18:12:43;;;;;;;59.35;53.35;;;;;;;;;;4124770;34;20053;-86
2021/07/26 18:15:30;;;;;;;59.80;53.55;;;;;;;;;;4120079;34;20041;-86
2021/07/26 18:17:59;;;;;;;58.50;52.75;;;;;;;;;;4122745;34;20104;-86
2021/07/26 18:20:27;;;;;;;88.60;62.00;;;;;;;;;;4118680;34;20053;-86
2021/07/26 18:22:58;;;;;;;81.10;57.55;;;;;;;;;;4119615;34;20071;-86
2021/07/26 18:25:28;;;;;;;61.70;47.92;;;;;;;;;;4118801;34;20076;-85
2021/07/26 18:27:58;;;;;;;74.95;51.80;;;;;;;;;;4121891;34;20073;-86
2021/07/26 18:30:27;;;;;;;69.50;52.35;;;;;;;;;;4119133;34;20106;-86
2021/07/26 18:33:01;;;;;;;;;;;;;;;;;;4109451;34;20104;-85
2021/07/26 18:35:29;;;;;;;53.38;39.72;;;;;;;;;;4111135;34;19996;-85
2021/07/26 18:37:58;;;;;;;62.25;42.17;;;;;;;;;;4111702;34;20143;-85
2021/07/26 18:40:27;;;;;;;65.55;43.40;;;;;;;;;;4110314;34;20069;-85
2021/07/26 18:42:55;;;;;;;65.68;43.58;;;;;;;;;;4108568;34;20049;-86
2021/07/26 18:45:24;;;;;;;62.20;48.13;;;;;;;;;;4107153;34;20099;-86
2021/07/26 18:47:52;;;;;;;47.00;41.97;;;;;;;;;;4104924;34;20176;-85
2021/07/26 18:50:21;;;;;;;50.12;39.45;;;;;;;;;;4106093;34;20547;-86
2021/07/26 18:52:49;;;;;;;46.78;40.83;;;;;;;;;;4106644;34;20084;-86
2021/07/26 18:55:18;;;;;;;41.37;37.15;;;;;;;;;;4106658;34;20049;-86
2021/07/26 18:57:46;;;;;;;65.85;43.67;;;;;;;;;;4110726;34;20127;-86
2021/07/26 19:00:15;;;;;;;62.83;40.88;;;;;;;;;;4106976;34;20822;-86
2021/07/26 19:02:44;;;;;;;62.90;39.38;;;;;;;;;;4107144;34;20376;-85
2021/07/26 19:05:12;;;;;;;58.92;38.28;;;;;;;;;;4103623;34;20100;-86
2021/07/26 19:07:42;;;;;;;54.80;37.03;;;;;;;;;;4111310;34;20519;-85
2021/07/26 19:10:11;;;;;;;59.33;38.50;;;;;;;;;;4109740;34;20555;-86
2021/07/26 19:12:40;;;;;;;61.17;38.42;;;;;;;;;;4109299;34;20057;-86
2021/07/26 19:15:08;;;;;;;54.22;36.53;;;;;;;;;;4111049;34;20061;-86
2021/07/26 19:17:37;;;;;;;66.78;42.92;;;;;;;;;;4098399;34;20058;-86
2021/07/26 19:20:06;;;;;;;64.78;41.67;;;;;;;;;;4111548;34;20053;-85
2021/07/26 19:22:35;;;;;;;39.90;35.60;;;;;;;;;;4113720;34;20169;-86
2021/07/26 19:25:05;;;;;;;38.28;34.13;;;;;;;;;;4111673;34;20079;-86
2021/07/26 19:27:34;;;;;;;61.20;55.40;;;;;;;;;;4110615;34;20150;-85
2021/07/26 19:30:04;;;;;;;57.65;52.38;;;;;;;;;;4107956;34;20049;-86
2021/07/26 19:32:51;;;;;;;57.72;52.60;;;;;;;;;;4121966;34;20524;-85
2021/07/26 19:35:20;;;;;;;74.00;62.08;;;;;;;;;;4125387;34;20496;-86
2021/07/26 19:37:49;;;;;;;72.15;62.55;;;;;;;;;;4122060;34;20385;-86
2021/07/26 19:40:17;;;;;;;68.87;61.53;;;;;;;;;;4121380;34;20054;-85
2021/07/26 19:42:46;;;;;;;71.30;63.45;;;;;;;;;;4126075;34;20147;-86
2021/07/26 19:45:14;;;;;;;70.47;62.15;;;;;;;;;;4122998;34;20124;-86
2021/07/26 19:47:43;;;;;;;70.53;62.33;;;;;;;;;;4126110;34;20069;-85
2021/07/26 19:50:13;;;;;;;73.75;61.37;;;;;;;;;;4122422;34;20494;-85
2021/07/26 19:52:41;;;;;;;74.18;63.35;;;;;;;;;;4120450;34;20084;-85
2021/07/26 19:55:10;;;;;;;72.32;61.35;;;;;;;;;;4118416;34;20079;-85
2021/07/26 19:57:39;;;;;;;71.87;61.03;;;;;;;;;;4121208;34;20067;-85
2021/07/26 20:00:08;;;;;;;68.75;61.30;;;;;;;;;;4117263;34;20065;-85
2021/07/26 20:02:39;;;;;;;69.50;62.75;;;;;;;;;;4124600;34;20041;-86
2021/07/26 20:05:08;;;;;;;65.55;59.35;;;;;;;;;;4124014;34;20401;-86
2021/07/26 20:07:38;;;;;;;65.93;59.75;;;;;;;;;;4114221;34;20089;-85
2021/07/26 20:10:07;;;;;;;66.90;60.70;;;;;;;;;;4126477;34;20045;-85
2021/07/26 20:12:36;;;;;;;65.10;58.97;;;;;;;;;;4124458;34;20041;-86
2021/07/26 20:15:15;;;;;;;67.68;59.38;;;;;;;;;;4121155;34;20075;-86
2021/07/26 20:17:45;;;;;;;71.78;60.67;;;;;;;;;;4125297;34;20052;-85
2021/07/26 20:20:15;;;;;;;70.20;61.10;;;;;;;;;;4123467;34;20053;-86
2021/07/26 20:22:44;;;;;;;80.68;61.65;;;;;;;;;;4123720;34;20040;-86
2021/07/26 20:25:12;;;;;;;69.35;61.65;;;;;;;;;;4121919;34;20057;-85
2021/07/26 20:27:42;;;;;;;72.90;56.40;;;;;;;;;;4123802;34;20124;-85
2021/07/26 20:30:10;;;;;;;75.07;56.55;;;;;;;;;;4125444;34;20136;-86
2021/07/26 20:32:39;;;;;;;73.25;55.97;;;;;;;;;;4126854;34;20087;-85
2021/07/26 20:35:09;;;;;;;74.55;57.28;;;;;;;;;;4124066;34;20440;-85
2021/07/26 20:37:39;;;;;;;74.55;57.62;;;;;;;;;;4114381;34;20402;-85
2021/07/26 20:40:09;;;;;;;57.05;51.90;;;;;;;;;;4125257;34;20117;-86
2021/07/26 20:42:38;;;;;;;57.83;52.47;;;;;;;;;;4111371;34;20063;-85
2021/07/26 20:45:07;;;;;;;56.80;50.97;;;;;;;;;;4121565;34;20053;-86
2021/07/26 20:47:37;;;;;;;58.50;52.85;;;;;;;;;;4122167;34;20072;-85
2021/07/26 20:50:06;;;;;;;57.72;52.62;;;;;;;;;;4120060;34;20057;-86
2021/07/26 20:52:35;;;;;;;69.93;55.78;;;;;;;;;;4121899;34;20145;-86
2021/07/26 20:55:04;;;;;;;72.43;56.22;;;;;;;;;;4118734;34;20052;-85
2021/07/26 20:57:33;;;;;;;67.40;54.63;;;;;;;;;;4120475;34;20084;-85
2021/07/26 21:00:13;;;;;;;61.95;53.42;;;;;;;;;;4124309;34;20264;-85
2021/07/26 21:02:41;;;;;;;55.75;50.05;;;;;;;;;;4125608;34;20085;-85
2021/07/26 21:05:10;;;;;;;58.05;51.95;;;;;;;;;;4121876;34;20052;-85
2021/07/26 21:07:39;;;;;;;67.93;55.12;;;;;;;;;;4120290;34;20065;-85
2021/07/26 21:10:07;;;;;;;69.03;56.22;;;;;;;;;;4118777;34;20505;-85
2021/07/26 21:12:36;;;;;;;68.95;55.38;;;;;;;;;;4123096;34;20256;-85
2021/07/26 21:15:06;;;;;;;61.45;55.75;;;;;;;;;;4119978;34;20044;-84
2021/07/26 21:17:34;;;;;;;63.58;57.00;;;;;;;;;;4125049;34;20116;-85
2021/07/26 21:20:03;;;;;;;61.97;55.75;;;;;;;;;;4119276;34;20523;-85
2021/07/26 21:22:32;;;;;;;62.35;55.83;;;;;;;;;;4122798;34;20432;-85
2021/07/26 21:25:01;;;;;;;59.17;53.38;;;;;;;;;;4107769;34;20071;-84
2021/07/26 21:27:30;;;;;;;57.17;51.75;;;;;;;;;;4123158;34;20080;-84
2021/07/26 21:29:59;;;;;;;67.72;53.22;;;;;;;;;;4117716;34;20065;-85
2021/07/26 21:32:28;;;;;;;76.68;53.60;;;;;;;;;;4120099;34;20076;-85
2021/07/26 21:34:56;;;;;;;69.70;54.97;;;;;;;;;;4120007;34;20495;-84
2021/07/26 21:37:25;;;;;;;67.47;54.95;;;;;;;;;;4119731;34;20564;-85
2021/07/26 21:39:54;;;;;;;66.68;54.85;;;;;;;;;;4123288;34;20049;-85
2021/07/26 21:42:23;;;;;;;67.78;53.95;;;;;;;;;;4128819;34;20156;-85
2021/07/26 21:44:51;;;;;;;65.20;52.88;;;;;;;;;;4119498;34;20920;-85
2021/07/26 21:47:20;;;;;;;70.90;54.35;;;;;;;;;;4124865;34;20586;-85
2021/07/26 21:49:49;;;;;;;67.45;54.00;;;;;;;;;;4121056;34;20470;-85
2021/07/26 21:52:26;;;;;;;58.95;53.00;;;;;;;;;;4120560;34;20130;-85
2021/07/26 21:54:54;;;;;;;56.63;51.20;;;;;;;;;;4124490;34;20076;-85
2021/07/26 21:57:23;;;;;;;54.42;49.83;;;;;;;;;;4127594;34;20115;-85
2021/07/26 21:59:52;;;;;;;55.15;49.55;;;;;;;;;;4124193;34;20053;-84
2021/07/26 22:02:20;;;;;;;54.45;49.70;;;;;;;;;;4124350;34;20044;-84
2021/07/26 22:04:49;;;;;;;57.22;48.90;;;;;;;;;;4111340;34;20079;-84
2021/07/26 22:07:18;;;;;;;55.17;48.30;;;;;;;;;;4128401;34;20053;-85
2021/07/26 22:09:47;;;;;;;54.95;48.87;;;;;;;;;;4125020;34;20429;-85
2021/07/26 22:12:16;;;;;;;57.67;49.88;;;;;;;;;;4126450;34;20049;-84
2021/07/26 22:14:45;;;;;;;55.45;49.65;;;;;;;;;;4125929;34;20631;-85
2021/07/26 22:17:13;;;;;;;66.12;53.70;;;;;;;;;;4114339;34;20107;-84
2021/07/26 22:19:42;;;;;;;68.20;56.83;;;;;;;;;;4121306;34;20044;-84
2021/07/26 22:22:11;;;;;;;64.32;57.25;;;;;;;;;;4127033;34;20157;-85
2021/07/26 22:24:39;;;;;;;81.28;63.45;;;;;;;;;;4121486;34;20122;-84
2021/07/26 22:27:08;;;;;;;78.70;63.35;;;;;;;;;;4120883;34;20135;-84
2021/07/26 22:29:37;;;;;;;63.47;57.40;;;;;;;;;;4120933;34;20049;-84
2021/07/26 22:32:05;;;;;;;62.65;56.85;;;;;;;;;;4119515;34;20075;-85
2021/07/26 22:34:34;;;;;;;63.22;57.28;;;;;;;;;;4120599;34;20112;-85
2021/07/26 22:37:02;;;;;;;65.65;59.47;;;;;;;;;;4126655;34;20061;-85
2021/07/26 22:39:31;;;;;;;67.07;60.88;;;;;;;;;;4122337;34;20057;-84
2021/07/26 22:41:59;;;;;;;66.65;60.22;;;;;;;;;;4122745;34;20120;-85
2021/07/26 22:44:28;;;;;;;72.15;64.25;;;;;;;;;;4120371;34;20118;-84